createdAt,value
2023-01-06T00:01:35.625Z,97781.27
2023-01-06T00:04:05.075Z,97789.14
2023-01-06T00:06:34.712Z,97783.73
2023-01-06T00:09:04.175Z,97784.70
2023-01-06T00:11:34.619Z,97794.40
2023-01-06T00:14:03.831Z,97800.54
2023-01-06T00:16:33.620Z,97799.79
2023-01-06T00:19:03.212Z,97804.18
2023-01-06T00:21:32.639Z,97804.30
2023-01-06T00:24:02.770Z,97808.40
2023-01-06T00:26:31.933Z,97809.25
2023-01-06T00:29:01.660Z,97815.18
2023-01-06T00:31:31.735Z,97807.02
2023-01-06T00:42:03.418Z,97825.92
2023-01-06T00:44:34.802Z,97818.90
2023-01-06T00:47:02.457Z,97832.34
2023-01-06T00:49:30.031Z,97825.55
2023-01-06T00:51:57.401Z,97835.80
2023-01-06T00:54:24.670Z,97832.96
2023-01-06T00:56:53.150Z,97836.00
2023-01-06T00:59:23.117Z,97843.54
2023-01-06T01:01:54.171Z,97840.86
2023-01-06T01:04:22.846Z,97852.58
2023-01-06T01:06:50.613Z,97848.54
2023-01-06T01:09:27.999Z,97860.30
2023-01-06T01:12:11.756Z,97867.39
2023-01-06T01:14:48.385Z,97865.30
2023-01-06T01:17:19.653Z,97868.48
2023-01-06T01:19:47.933Z,97877.96
2023-01-06T01:22:15.070Z,97871.72
2023-01-06T01:24:42.234Z,97879.76
2023-01-06T01:27:09.278Z,97877.58
2023-01-06T01:29:37.045Z,97877.81
2023-01-06T01:32:04.809Z,97883.29
2023-01-06T01:34:33.900Z,97881.39
2023-01-06T01:37:00.974Z,97885.80
2023-01-06T01:39:29.124Z,97890.59
2023-01-06T01:41:58.528Z,97889.99
2023-01-06T01:44:58.747Z,97895.04
2023-01-06T01:47:38.661Z,97899.59
2023-01-06T01:50:15.639Z,97897.14
2023-01-06T01:52:42.605Z,97900.29
2023-01-06T01:55:10.060Z,97901.64
2023-01-06T01:57:56.997Z,97908.36
2023-01-06T02:00:24.856Z,97916.87
2023-01-06T02:02:52.224Z,97914.19
2023-01-06T02:05:21.189Z,97918.13
2023-01-06T02:07:48.459Z,97931.56
2023-01-06T02:18:05.930Z,97938.71
2023-01-06T02:20:45.170Z,97939.83
2023-01-06T02:23:34.124Z,97957.70
2023-01-06T02:26:20.572Z,97960.36
2023-01-06T02:29:12.771Z,97956.69
2023-01-06T02:31:52.337Z,97965.52
2023-01-06T02:34:43.432Z,97969.61
2023-01-06T02:37:32.622Z,97977.45
2023-01-06T02:40:32.807Z,97978.93
2023-01-06T02:43:37.155Z,97985.77
2023-01-06T02:46:24.226Z,97981.73
2023-01-06T02:49:43.268Z,97999.88
2023-01-06T02:52:25.444Z,97988.92
2023-01-06T02:55:01.583Z,98001.85
2023-01-06T02:57:49.775Z,98010.14
2023-01-06T03:00:41.139Z,98017.77
2023-01-06T03:03:13.469Z,98021.78
2023-01-06T03:05:41.696Z,98023.20
2023-01-06T03:08:10.922Z,98028.70
2023-01-06T03:10:39.358Z,98027.20
2023-01-06T03:13:07.428Z,98034.16
2023-01-06T03:15:35.128Z,98046.81
2023-01-06T03:18:02.460Z,98070.73
2023-01-06T03:20:29.495Z,98074.65
2023-01-06T03:22:56.684Z,98083.96
2023-01-06T03:25:23.605Z,98097.48
2023-01-06T03:27:51.146Z,98099.29
2023-01-06T03:30:18.548Z,98105.96
2023-01-06T03:32:59.227Z,98108.10
2023-01-06T03:35:40.791Z,98116.49
2023-01-06T03:38:10.778Z,98129.52
2023-01-06T03:40:40.423Z,98135.09
2023-01-06T03:43:16.927Z,98142.26
2023-01-06T03:46:01.399Z,98149.02
2023-01-06T03:48:48.128Z,98156.64
2023-01-06T03:51:24.011Z,98158.45
2023-01-06T03:54:10.159Z,98170.48
2023-01-06T03:56:59.298Z,98183.41
2023-01-06T03:59:27.601Z,98192.30
2023-01-06T04:01:54.817Z,98197.98
2023-01-06T04:04:22.011Z,98208.16
2023-01-06T04:06:49.050Z,98215.13
2023-01-06T04:09:16.410Z,98225.59
2023-01-06T04:12:03.015Z,98234.13
2023-01-06T04:14:30.712Z,98248.52
2023-01-06T04:16:58.499Z,98250.38
2023-01-06T04:19:25.586Z,98258.55
2023-01-06T04:21:52.881Z,98273.87
2023-01-06T04:24:20.135Z,98283.28
2023-01-06T04:26:47.140Z,98289.89
2023-01-06T04:29:14.635Z,98297.89
2023-01-06T04:31:41.710Z,98306.85
2023-01-06T04:34:08.794Z,98318.44
2023-01-06T04:36:36.192Z,98323.52
2023-01-06T04:39:03.292Z,98335.46
2023-01-06T04:41:32.214Z,98341.40
2023-01-06T04:43:59.229Z,98348.69
2023-01-06T04:46:26.160Z,98355.94
2023-01-06T04:48:53.135Z,98359.36
2023-01-06T04:51:20.138Z,98372.05
2023-01-06T04:53:48.176Z,98385.02
2023-01-06T04:56:15.089Z,98388.54
2023-01-06T04:58:42.128Z,98394.54
2023-01-06T05:01:11.020Z,98402.45
2023-01-06T05:03:39.006Z,98410.29
2023-01-06T05:06:10.500Z,98422.77
2023-01-06T05:08:38.812Z,98427.80
2023-01-06T05:11:19.413Z,98438.16
2023-01-06T05:13:46.842Z,98442.94
2023-01-06T05:16:28.102Z,98451.82
2023-01-06T05:18:55.404Z,98459.89
2023-01-06T05:21:25.179Z,98465.09
2023-01-06T05:23:52.224Z,98468.13
2023-01-06T05:26:21.485Z,98472.10
2023-01-06T05:28:48.674Z,98478.66
2023-01-06T05:31:15.803Z,98487.10
2023-01-06T05:33:43.001Z,98489.67
2023-01-06T05:36:11.824Z,98499.36
2023-01-06T05:38:38.872Z,98515.05
2023-01-06T05:41:06.179Z,98522.95
2023-01-06T05:43:34.173Z,98543.59
2023-01-06T05:46:05.481Z,98550.29
2023-01-06T05:48:32.537Z,98554.73
2023-01-06T05:51:26.228Z,98560.61
2023-01-06T05:53:53.135Z,98568.08
2023-01-06T05:56:21.144Z,98576.27
2023-01-06T05:58:50.121Z,98578.98
2023-01-06T06:01:20.294Z,98584.70
2023-01-06T06:03:47.873Z,98589.23
2023-01-06T06:06:15.032Z,98587.58
2023-01-06T06:08:42.125Z,98596.65
2023-01-06T06:11:11.701Z,98600.71
2023-01-06T06:13:39.165Z,98614.02
2023-01-06T06:16:07.461Z,98624.27
2023-01-06T06:18:36.587Z,98629.98
2023-01-06T06:21:04.277Z,98635.98
2023-01-06T06:23:31.351Z,98639.45
2023-01-06T06:25:58.403Z,98646.80
2023-01-06T06:28:25.489Z,98655.58
2023-01-06T06:30:54.262Z,98666.42
2023-01-06T06:33:22.591Z,98671.71
2023-01-06T06:36:00.390Z,98678.23
2023-01-06T06:38:27.473Z,98690.84
2023-01-06T06:40:54.896Z,98701.88
2023-01-06T06:43:21.862Z,98711.46
2023-01-06T06:45:48.920Z,98728.05
2023-01-06T06:48:16.854Z,98729.57
2023-01-06T06:50:43.803Z,98734.76
2023-01-06T06:53:10.837Z,98737.86
2023-01-06T06:55:37.736Z,98746.73
2023-01-06T06:58:04.733Z,98760.77
2023-01-06T07:00:31.740Z,98756.24
2023-01-06T07:02:58.821Z,98764.80
2023-01-06T07:05:26.022Z,98771.96
2023-01-06T07:07:53.040Z,98779.29
2023-01-06T07:10:20.085Z,98777.52
2023-01-06T07:12:47.146Z,98794.84
2023-01-06T07:15:14.067Z,98794.87
2023-01-06T07:17:42.119Z,98794.54
2023-01-06T07:20:10.252Z,98803.06
2023-01-06T07:22:40.732Z,98805.20
2023-01-06T07:25:09.149Z,98795.59
2023-01-06T07:27:36.014Z,98803.09
2023-01-06T07:30:04.124Z,98807.64
2023-01-06T07:32:31.203Z,98801.66
2023-01-06T07:34:58.216Z,98812.52
2023-01-06T07:37:25.199Z,98816.49
2023-01-06T07:39:52.141Z,98826.73
2023-01-06T07:42:19.031Z,98830.58
2023-01-06T07:44:46.156Z,98846.67
2023-01-06T07:47:14.309Z,98850.39
2023-01-06T07:49:41.556Z,98850.55
2023-01-06T07:52:08.573Z,98869.56
2023-01-06T07:54:35.615Z,98875.47
2023-01-06T07:57:02.570Z,98872.73
2023-01-06T07:59:29.615Z,98877.91
2023-01-06T08:01:56.813Z,98879.05
2023-01-06T08:04:24.304Z,98883.23
2023-01-06T08:06:51.384Z,98888.30
2023-01-06T08:09:18.512Z,98901.71
2023-01-06T08:11:45.468Z,98905.76
2023-01-06T08:14:13.303Z,98903.18
2023-01-06T08:16:40.381Z,98905.11
2023-01-06T08:19:07.407Z,98916.92
2023-01-06T08:21:34.445Z,98917.66
2023-01-06T08:24:01.610Z,98928.48
2023-01-06T08:26:28.573Z,98943.92
2023-01-06T08:28:55.621Z,98958.24
2023-01-06T08:31:22.858Z,98958.39
2023-01-06T08:33:51.214Z,98946.27
2023-01-06T08:36:18.992Z,98967.30
2023-01-06T08:38:45.953Z,98967.16
2023-01-06T08:41:12.991Z,98971.88
2023-01-06T08:43:40.886Z,98979.88
2023-01-06T08:46:08.793Z,98978.40
2023-01-06T08:48:35.982Z,98993.52
2023-01-06T08:51:07.649Z,98992.33
2023-01-06T08:53:34.780Z,98998.17
2023-01-06T08:56:01.831Z,99013.83
2023-01-06T08:58:28.925Z,99004.10
2023-01-06T09:00:56.738Z,99020.81
2023-01-06T09:03:23.809Z,99035.98
2023-01-06T09:05:57.710Z,99024.98
2023-01-06T09:08:24.741Z,99021.55
2023-01-06T09:10:52.326Z,99020.27
2023-01-06T09:13:19.511Z,99025.63
2023-01-06T09:15:49.296Z,99039.04
2023-01-06T09:18:16.304Z,99047.73
2023-01-06T09:20:43.255Z,99036.28
2023-01-06T09:23:10.219Z,99035.28
2023-01-06T09:25:37.143Z,99042.27
2023-01-06T09:28:04.122Z,99046.59
2023-01-06T09:30:31.141Z,99047.88
2023-01-06T09:32:58.084Z,99049.45
2023-01-06T09:35:25.322Z,99049.50
2023-01-06T09:37:52.382Z,99057.03
2023-01-06T09:40:21.885Z,99058.81
2023-01-06T09:42:58.556Z,99060.92
2023-01-06T09:45:38.731Z,99055.66
2023-01-06T09:48:07.100Z,99060.92
2023-01-06T09:51:01.170Z,99077.44
2023-01-06T09:53:39.985Z,99078.17
2023-01-06T09:56:10.575Z,99071.11
2023-01-06T09:58:39.949Z,99075.88
2023-01-06T10:01:08.700Z,99067.23
2023-01-06T10:03:35.973Z,99057.33
2023-01-06T10:06:21.583Z,99066.83
2023-01-06T10:08:58.050Z,99069.32
2023-01-06T10:11:44.208Z,99056.64
2023-01-06T10:14:20.582Z,99064.60
2023-01-06T10:17:02.676Z,99074.66
2023-01-06T10:19:51.345Z,99087.27
2023-01-06T10:22:24.710Z,99089.65
2023-01-06T10:24:52.175Z,99087.19
2023-01-06T10:27:27.423Z,99096.58
2023-01-06T10:29:58.356Z,99097.48
2023-01-06T10:32:25.817Z,99101.48
2023-01-06T10:34:53.050Z,99105.24
2023-01-06T10:37:33.700Z,99098.06
2023-01-06T10:40:12.152Z,99109.95
2023-01-06T10:42:57.704Z,99110.08
2023-01-06T10:45:41.085Z,99112.13
2023-01-06T10:48:11.605Z,99124.12
2023-01-06T10:50:38.835Z,99126.70
2023-01-06T10:53:05.818Z,99122.40
2023-01-06T10:55:47.981Z,99121.49
2023-01-06T10:58:36.043Z,99127.20
2023-01-06T11:01:18.048Z,99128.56
2023-01-06T11:03:45.932Z,99125.52
2023-01-06T11:06:24.258Z,99125.04
2023-01-06T11:08:51.242Z,99129.85
2023-01-06T11:11:34.436Z,99131.83
2023-01-06T11:14:03.967Z,99131.59
2023-01-06T11:16:36.022Z,99134.20
2023-01-06T11:19:04.759Z,99135.45
2023-01-06T11:21:45.182Z,99136.90
2023-01-06T11:24:19.566Z,99131.86
2023-01-06T11:26:58.029Z,99137.33
2023-01-06T11:29:27.442Z,99140.42
2023-01-06T11:31:54.979Z,99143.83
2023-01-06T11:34:27.145Z,99145.83
2023-01-06T11:36:54.223Z,99143.61
2023-01-06T11:39:24.555Z,99143.05
2023-01-06T11:41:52.270Z,99148.95
2023-01-06T11:44:32.433Z,99154.20
2023-01-06T11:47:15.047Z,99157.73
2023-01-06T11:49:52.391Z,99164.75
2023-01-06T11:52:32.723Z,99167.60
2023-01-06T11:55:19.202Z,99176.83
2023-01-06T11:57:55.348Z,99168.96
2023-01-06T12:00:46.396Z,99169.15
2023-01-06T12:03:35.014Z,99175.13
2023-01-06T12:06:33.096Z,99176.36
2023-01-06T12:09:02.672Z,99176.89
2023-01-06T12:11:49.963Z,99182.79
2023-01-06T12:14:28.355Z,99184.82
2023-01-06T12:16:59.665Z,99183.70
2023-01-06T12:19:36.745Z,99177.56
2023-01-06T12:22:03.988Z,99178.41
2023-01-06T12:24:33.624Z,99174.96
2023-01-06T12:27:04.193Z,99176.98
2023-01-06T12:29:31.195Z,99172.65
2023-01-06T12:32:04.399Z,99176.87
2023-01-06T12:34:36.774Z,99169.25
2023-01-06T12:37:23.316Z,99161.39
2023-01-06T12:40:04.852Z,99168.59
2023-01-06T12:42:36.206Z,99170.20
2023-01-06T12:45:10.042Z,99169.25
2023-01-06T12:47:42.577Z,99175.88
2023-01-06T12:50:28.887Z,99173.34
2023-01-06T12:53:20.573Z,99184.19
2023-01-06T12:56:07.414Z,99191.38
2023-01-06T12:59:11.070Z,99193.66
2023-01-06T13:01:56.910Z,99196.61
2023-01-06T13:05:05.763Z,99200.64
2023-01-06T13:07:35.860Z,99206.21
2023-01-06T13:10:22.891Z,99211.41
2023-01-06T13:13:09.251Z,99213.00
2023-01-06T13:15:37.030Z,99226.63
2023-01-06T13:18:07.364Z,99220.68
2023-01-06T13:21:07.921Z,99235.34
2023-01-06T13:24:03.830Z,99244.34
2023-01-06T13:27:03.383Z,99253.63
2023-01-06T13:30:03.440Z,99252.09
2023-01-06T13:32:30.385Z,99248.05
2023-01-06T13:35:09.820Z,99250.06
2023-01-06T13:37:41.417Z,99251.14
2023-01-06T13:40:13.822Z,99254.21
2023-01-06T13:42:52.366Z,99262.30
2023-01-06T13:45:34.463Z,99265.20
2023-01-06T13:48:01.550Z,99272.70
2023-01-06T13:50:28.691Z,99279.98
2023-01-06T13:52:55.808Z,99285.37
2023-01-06T13:55:24.203Z,99293.71
2023-01-06T13:57:54.031Z,99291.79
2023-01-06T14:00:30.609Z,99297.60
2023-01-06T14:03:00.329Z,99298.50
2023-01-06T14:05:31.116Z,99300.90
2023-01-06T14:08:02.363Z,99301.88
2023-01-06T14:10:38.529Z,99308.98
2023-01-06T14:13:33.197Z,99306.06
2023-01-06T14:16:11.959Z,99310.09
2023-01-06T14:18:44.346Z,99305.11
2023-01-06T14:21:14.435Z,99302.14
2023-01-06T14:23:54.798Z,99311.36
2023-01-06T14:26:23.451Z,99315.16
2023-01-06T14:28:50.414Z,99315.95
2023-01-06T14:31:26.786Z,99328.34
2023-01-06T14:34:01.367Z,99335.77
2023-01-06T14:36:30.428Z,99348.34
2023-01-06T14:39:00.938Z,99350.33
2023-01-06T14:41:29.614Z,99355.13
2023-01-06T14:44:01.510Z,99353.44
2023-01-06T14:46:43.836Z,99359.52
2023-01-06T14:49:20.265Z,99361.42
2023-01-06T14:51:47.291Z,99364.38
2023-01-06T14:54:17.418Z,99361.38
2023-01-06T14:56:54.710Z,99359.20
2023-01-06T14:59:22.892Z,99357.83
2023-01-06T15:01:58.947Z,99369.41
2023-01-06T15:04:34.066Z,99375.17
2023-01-06T15:07:19.850Z,99380.64
2023-01-06T15:09:47.701Z,99380.04
2023-01-06T15:12:33.511Z,99382.89
2023-01-06T15:15:24.205Z,99385.41
2023-01-06T15:17:52.101Z,99396.25
2023-01-06T15:20:19.352Z,99397.98
2023-01-06T15:22:49.534Z,99399.66
2023-01-06T15:25:25.165Z,99396.56
2023-01-06T15:27:55.775Z,99397.73
2023-01-06T15:30:24.723Z,99402.02
2023-01-06T15:32:52.006Z,99409.72
2023-01-06T15:35:24.634Z,99410.16
2023-01-06T15:38:05.313Z,99413.04
2023-01-06T15:40:33.399Z,99415.56
2023-01-06T15:43:07.096Z,99413.80
2023-01-06T15:45:34.233Z,99410.45
2023-01-06T15:48:03.242Z,99409.52
2023-01-06T15:50:32.020Z,99411.40
2023-01-06T15:53:06.339Z,99410.82
2023-01-06T15:55:34.891Z,99409.08
2023-01-06T15:58:24.926Z,99409.48
2023-01-06T16:01:02.102Z,99412.31
2023-01-06T16:03:30.503Z,99411.23
2023-01-06T16:06:11.716Z,99405.11
2023-01-06T16:08:39.303Z,99412.88
2023-01-06T16:11:40.355Z,99410.92
2023-01-06T16:14:30.953Z,99409.73
2023-01-06T16:17:10.499Z,99410.13
2023-01-06T16:19:40.334Z,99418.61
2023-01-06T16:22:08.882Z,99417.36
2023-01-06T16:24:35.926Z,99416.06
2023-01-06T16:27:04.994Z,99416.19
2023-01-06T16:29:35.969Z,99419.11
2023-01-06T16:32:32.171Z,99417.76
2023-01-06T16:35:03.236Z,99418.98
2023-01-06T16:37:34.996Z,99419.82
2023-01-06T16:40:02.103Z,99420.63
2023-01-06T16:42:45.411Z,99424.60
2023-01-06T16:45:20.143Z,99425.54
2023-01-06T16:52:33.659Z,99430.71
2023-01-06T16:55:00.923Z,99431.42
2023-01-06T16:57:31.243Z,99428.64
2023-01-06T16:59:58.382Z,99429.64
2023-01-06T17:02:25.525Z,99425.23
2023-01-06T17:04:54.382Z,99420.95
2023-01-06T17:07:21.472Z,99420.83
2023-01-06T17:09:51.097Z,99420.58
2023-01-06T17:12:36.973Z,99422.13
2023-01-06T17:15:04.699Z,99421.71
2023-01-06T17:17:32.019Z,99422.52
2023-01-06T17:19:59.204Z,99422.34
2023-01-06T17:22:32.834Z,99426.11
2023-01-06T17:25:02.253Z,99433.13
2023-01-06T17:27:30.321Z,99436.14
2023-01-06T17:30:01.414Z,99438.83
2023-01-06T17:32:38.655Z,99443.73
2023-01-06T17:35:28.735Z,99436.75
2023-01-06T17:37:59.237Z,99438.54
2023-01-06T17:40:29.844Z,99433.21
2023-01-06T17:43:02.257Z,99440.25
2023-01-06T17:45:29.404Z,99440.86
2023-01-06T17:47:56.315Z,99439.30
2023-01-06T17:50:31.711Z,99434.47
2023-01-06T17:53:32.227Z,99439.97
2023-01-06T17:56:01.401Z,99441.79
2023-01-06T17:58:30.451Z,99434.59
2023-01-06T18:00:57.839Z,99437.02
2023-01-06T18:03:31.927Z,99434.02
2023-01-06T18:06:04.921Z,99426.59
2023-01-06T18:08:33.789Z,99431.23
2023-01-06T18:13:58.744Z,99436.39
2023-01-06T18:16:30.143Z,99438.77
2023-01-06T18:19:18.585Z,99436.77
2023-01-06T18:21:46.892Z,99433.30
2023-01-06T18:24:33.200Z,99438.80
2023-01-06T18:27:07.098Z,99439.99
2023-01-06T18:29:38.295Z,99440.68
2023-01-06T18:32:35.130Z,99444.92
2023-01-06T18:35:03.334Z,99441.88
2023-01-06T18:37:34.070Z,99439.74
2023-01-06T18:40:06.679Z,99445.44
2023-01-06T18:42:47.496Z,99442.77
2023-01-06T18:45:23.675Z,99441.02
2023-01-06T18:48:01.949Z,99444.29
2023-01-06T18:50:33.525Z,99445.91
2023-01-06T18:53:24.739Z,99443.19
2023-01-06T18:55:55.261Z,99445.45
2023-01-06T18:58:25.922Z,99441.54
2023-01-06T19:00:55.208Z,99446.77
2023-01-06T19:03:31.774Z,99448.75
2023-01-06T19:06:09.476Z,99455.45
2023-01-06T19:08:39.033Z,99459.79
2023-01-06T19:16:06.102Z,99461.09
2023-01-06T19:18:33.292Z,99464.91
2023-01-06T19:21:02.620Z,99467.14
2023-01-06T19:23:30.272Z,99470.31
2023-01-06T19:26:31.529Z,99472.07
2023-01-06T19:29:03.371Z,99471.73
2023-01-06T19:34:21.411Z,99458.95
2023-01-06T19:36:54.418Z,99466.66
2023-01-06T19:39:33.049Z,99472.66
2023-01-06T19:42:27.511Z,99470.14
2023-01-06T19:44:57.276Z,99476.23
2023-01-06T19:47:28.049Z,99477.67
2023-01-06T19:49:58.897Z,99477.71
2023-01-06T19:52:35.886Z,99478.10
2023-01-06T19:55:22.683Z,99481.94
2023-01-06T19:57:51.939Z,99483.09
2023-01-06T20:00:24.074Z,99482.85
2023-01-06T20:02:54.663Z,99484.72
2023-01-06T20:05:21.628Z,99481.81
2023-01-06T20:07:48.827Z,99474.67
2023-01-06T20:10:16.640Z,99477.03
2023-01-06T20:12:45.159Z,99486.02
2023-01-06T20:15:13.398Z,99489.68
2023-01-06T20:17:40.547Z,99489.73
2023-01-06T20:20:09.197Z,99490.17
2023-01-06T20:22:36.481Z,99487.94
2023-01-06T20:25:03.869Z,99490.20
2023-01-06T20:27:31.606Z,99488.12
2023-01-06T20:29:58.677Z,99483.09
2023-01-06T20:32:26.007Z,99482.92
2023-01-06T20:34:53.356Z,99485.77
2023-01-06T20:37:20.354Z,99484.31
2023-01-06T20:39:47.452Z,99489.46
2023-01-06T20:42:14.599Z,99488.33
2023-01-06T20:44:42.679Z,99489.91
2023-01-06T20:47:09.925Z,99486.77
2023-01-06T20:49:38.947Z,99491.50
2023-01-06T20:52:05.964Z,99482.88
2023-01-06T20:54:33.009Z,99479.21
2023-01-06T20:56:59.960Z,99464.67
2023-01-06T20:59:27.285Z,99460.47
2023-01-06T21:01:54.584Z,99452.77
2023-01-06T21:04:21.824Z,99454.56
2023-01-06T21:06:48.740Z,99456.55
2023-01-06T21:09:15.705Z,99454.61
2023-01-06T21:11:42.628Z,99456.14
2023-01-06T21:14:09.630Z,99460.69
2023-01-06T21:16:36.901Z,99461.80
2023-01-06T21:19:03.996Z,99464.71
2023-01-06T21:21:31.193Z,99469.98
2023-01-06T21:24:00.551Z,99469.55
2023-01-06T21:26:28.022Z,99465.12
2023-01-06T21:28:57.844Z,99458.44
2023-01-06T21:31:24.793Z,99457.70
2023-01-06T21:33:51.808Z,99461.83
2023-01-06T21:36:19.245Z,99468.84
2023-01-06T21:38:46.412Z,99470.91
2023-01-06T21:41:32.700Z,99471.13
2023-01-06T21:43:59.854Z,99483.83
2023-01-06T21:46:27.069Z,99490.36
2023-01-06T21:48:54.170Z,99487.26
2023-01-06T21:51:21.206Z,99496.80
2023-01-06T21:53:48.163Z,99503.39
2023-01-06T21:56:15.191Z,99502.45
2023-01-06T21:58:42.243Z,99493.60
2023-01-06T22:01:09.396Z,99490.98
2023-01-06T22:03:36.641Z,99492.98
2023-01-06T22:06:03.842Z,99497.73
2023-01-06T22:08:30.833Z,99499.57
2023-01-06T22:10:57.826Z,99492.05
2023-01-06T22:13:24.853Z,99490.32
2023-01-06T22:15:51.874Z,99491.27
2023-01-06T22:18:18.927Z,99492.52
2023-01-06T22:20:46.099Z,99498.68
2023-01-06T22:23:15.927Z,99499.44
2023-01-06T22:25:42.931Z,99496.75
2023-01-06T22:28:10.077Z,99499.52
2023-01-06T22:30:37.102Z,99493.93
2023-01-06T22:33:05.310Z,99492.13
2023-01-06T22:35:32.389Z,99489.46
2023-01-06T22:37:59.607Z,99493.15
2023-01-06T22:40:26.756Z,99494.55
2023-01-06T22:42:53.810Z,99497.19
2023-01-06T22:45:20.743Z,99500.73
2023-01-06T22:47:47.939Z,99513.38
2023-01-06T22:50:14.941Z,99517.84
2023-01-06T22:52:41.957Z,99518.02
2023-01-06T22:55:09.459Z,99521.42
2023-01-06T22:57:36.493Z,99517.90
2023-01-06T23:35:12.800Z,99487.95
2023-01-06T23:37:39.823Z,99481.86
2023-01-06T23:40:08.032Z,99481.78
2023-01-06T23:42:40.836Z,99482.39
2023-01-06T23:45:15.093Z,99479.28
2023-01-06T23:47:42.095Z,99483.08
2023-01-06T23:50:09.532Z,99482.18
2023-01-06T23:52:36.692Z,99476.54
2023-01-06T23:55:04.559Z,99480.46
2023-01-06T23:57:31.558Z,99487.48
2023-01-06T23:59:58.604Z,99490.92
